Time;durP1;ratioP1;P1;durP2;ratioP2;P2;SDS_P1;SDS_P2;PMS_P1;PMS_P2;Temp;Humidity;BMP_temperature;BMP_pressure;BME280_temperature;BME280_humidity;BME280_pressure;Samples;Min_cycle;Max_cycle;Signal;HPM_P1;HPM_P2
2023/06/12 00:00:47;;;;;;;10.07;5.03;;;19.00;99.90;;;;;;4971323;28;20451;-76
2023/06/12 00:03:13;;;;;;;10.95;5.47;;;19.00;99.90;;;;;;4971078;28;20439;-76
2023/06/12 00:05:43;;;;;;;10.30;5.28;;;19.10;99.90;;;;;;4971399;28;20411;-76
2023/06/12 00:08:11;;;;;;;9.50;4.93;;;19.10;99.90;;;;;;4970083;28;20783;-76
2023/06/12 00:10:37;;;;;;;11.23;4.88;;;19.20;99.90;;;;;;4971953;28;20503;-76
2023/06/12 00:13:03;;;;;;;10.23;5.47;;;19.10;99.90;;;;;;4970827;28;20414;-76
2023/06/12 00:15:28;;;;;;;11.30;5.20;;;19.10;99.90;;;;;;4971531;28;20782;-76
2023/06/12 00:17:54;;;;;;;13.73;5.60;;;19.10;99.90;;;;;;4970202;28;20823;-76
2023/06/12 00:20:19;;;;;;;11.30;5.50;;;19.00;99.90;;;;;;4971038;28;20420;-76
2023/06/12 00:22:45;;;;;;;10.87;5.60;;;18.90;99.90;;;;;;4971395;28;20499;-76
2023/06/12 00:25:10;;;;;;;9.47;5.00;;;18.90;99.90;;;;;;4969903;28;20411;-76
2023/06/12 00:27:36;;;;;;;10.20;5.10;;;18.90;99.90;;;;;;4969799;28;20404;-76
2023/06/12 00:30:03;;;;;;;11.03;5.63;;;18.90;99.90;;;;;;4971469;28;20394;-76
2023/06/12 00:32:28;;;;;;;10.23;5.50;;;18.70;99.90;;;;;;4971484;28;20896;-76
2023/06/12 00:34:54;;;;;;;10.70;5.70;;;18.70;99.90;;;;;;4971614;28;20567;-76
2023/06/12 00:37:24;;;;;;;10.75;5.38;;;18.60;99.90;;;;;;4970940;28;20474;-76
2023/06/12 00:39:50;;;;;;;10.35;5.63;;;18.50;99.90;;;;;;4971247;28;20396;-76
2023/06/12 00:42:15;;;;;;;12.60;6.63;;;18.40;99.90;;;;;;4971272;28;20399;-76
2023/06/12 00:44:41;;;;;;;10.80;5.70;;;18.40;99.90;;;;;;4971365;28;20400;-76
2023/06/12 00:47:09;;;;;;;10.93;6.00;;;18.20;99.90;;;;;;4970694;28;20415;-76
2023/06/12 00:49:35;;;;;;;11.10;6.05;;;18.20;99.90;;;;;;4970804;28;20407;-76
2023/06/12 00:52:01;;;;;;;12.33;5.90;;;18.20;99.90;;;;;;4971072;28;20418;-76
2023/06/12 00:54:28;;;;;;;10.65;5.60;;;18.10;99.90;;;;;;4971101;28;20416;-76
2023/06/12 00:56:55;;;;;;;11.20;5.60;;;18.20;99.90;;;;;;4970382;28;20454;-76
2023/06/12 00:59:21;;;;;;;12.13;5.70;;;18.20;99.90;;;;;;4970390;28;20415;-76
2023/06/12 01:01:46;;;;;;;11.60;5.50;;;18.20;99.90;;;;;;4969982;28;20420;-76
2023/06/12 01:04:12;;;;;;;12.48;5.80;;;18.10;99.90;;;;;;4970029;28;20795;-79
2023/06/12 01:06:52;;;;;;;11.10;6.10;;;18.20;99.90;;;;;;4969994;28;20512;-78
2023/06/12 01:09:36;;;;;;;11.82;6.20;;;18.20;99.90;;;;;;4978440;28;20951;-78
2023/06/12 01:12:03;;;;;;;12.02;5.25;;;18.20;99.90;;;;;;4972161;28;20471;-78
2023/06/12 01:14:28;;;;;;;11.87;6.27;;;18.10;99.90;;;;;;4970310;28;20459;-78
2023/06/12 01:16:58;;;;;;;11.03;6.27;;;18.00;99.90;;;;;;4970797;28;20467;-78
2023/06/12 01:19:24;;;;;;;10.98;5.22;;;17.90;99.90;;;;;;4957335;28;20435;-78
2023/06/12 01:21:57;;;;;;;11.97;6.60;;;17.90;99.90;;;;;;4969926;28;20466;-78
2023/06/12 01:24:42;;;;;;;10.50;5.72;;;17.80;99.90;;;;;;4970607;28;20749;-78
2023/06/12 01:27:29;;;;;;;10.70;5.70;;;17.90;99.90;;;;;;4968273;28;22345;-78
2023/06/12 01:30:15;;;;;;;11.77;6.30;;;18.00;99.90;;;;;;4920776;28;20503;-78
2023/06/12 01:32:40;;;;;;;12.43;5.90;;;18.20;99.90;;;;;;4970492;28;20415;-78
2023/06/12 01:35:21;;;;;;;9.63;5.30;;;18.10;99.90;;;;;;4970076;28;20779;-78
2023/06/12 01:38:07;;;;;;;10.20;5.40;;;18.20;99.90;;;;;;4969491;28;20432;-78
2023/06/12 01:40:34;;;;;;;13.90;5.15;;;18.30;99.90;;;;;;4952868;28;20487;-78
2023/06/12 01:43:00;;;;;;;9.73;5.60;;;18.30;99.90;;;;;;4970756;28;20486;-78
2023/06/12 01:45:26;;;;;;;10.60;5.90;;;18.30;99.90;;;;;;4951913;28;20481;-78
2023/06/12 01:47:51;;;;;;;12.73;6.67;;;18.30;99.90;;;;;;4967899;28;20431;-78
2023/06/12 01:50:16;;;;;;;9.63;5.27;;;18.30;99.90;;;;;;4969815;28;20424;-78
2023/06/12 01:52:43;;;;;;;11.87;6.20;;;18.30;99.90;;;;;;4969861;28;20412;-78
2023/06/12 01:55:09;;;;;;;10.97;5.20;;;18.10;99.90;;;;;;4970530;28;20412;-78
2023/06/12 01:57:36;;;;;;;12.57;5.63;;;17.80;99.90;;;;;;4969550;28;20763;-78
2023/06/12 02:00:04;;;;;;;12.07;5.60;;;17.50;99.90;;;;;;4970059;28;20726;-78
2023/06/12 02:02:32;;;;;;;11.05;5.60;;;17.50;99.90;;;;;;4970127;28;20411;-79
2023/06/12 02:04:58;;;;;;;10.52;4.95;;;17.60;99.90;;;;;;4970561;28;20411;-79
2023/06/12 02:07:23;;;;;;;11.35;5.53;;;17.60;99.90;;;;;;4970375;28;20419;-78
2023/06/12 02:09:49;;;;;;;10.50;5.60;;;17.60;99.90;;;;;;4960335;28;20434;-78
2023/06/12 02:12:14;;;;;;;10.50;5.50;;;17.70;99.90;;;;;;4987968;28;20445;-78
2023/06/12 02:14:41;;;;;;;12.23;5.70;;;17.70;99.90;;;;;;4982665;28;20458;-78
2023/06/12 02:17:07;;;;;;;10.27;5.30;;;17.50;99.90;;;;;;4974545;28;20472;-78
2023/06/12 02:19:33;;;;;;;10.20;5.50;;;17.30;99.90;;;;;;4962430;28;20833;-78
2023/06/12 02:21:59;;;;;;;11.27;5.07;;;17.10;99.90;;;;;;4995853;28;20414;-76
2023/06/12 02:24:29;;;;;;;11.40;5.73;;;17.20;99.90;;;;;;4996033;28;20390;-76
2023/06/12 02:26:55;;;;;;;12.30;5.65;;;17.30;99.90;;;;;;4996176;28;20518;-76
2023/06/12 02:29:20;;;;;;;9.95;5.50;;;17.40;99.90;;;;;;4974994;28;20446;-76
2023/06/12 02:31:46;;;;;;;11.52;5.05;;;17.50;99.90;;;;;;4988032;28;20454;-75
2023/06/12 02:34:12;;;;;;;9.97;5.23;;;17.40;99.90;;;;;;4989175;28;20465;-75
2023/06/12 02:36:40;;;;;;;10.40;5.50;;;17.40;99.90;;;;;;4986208;28;20421;-75
2023/06/12 02:39:13;;;;;;;12.30;5.65;;;17.40;99.90;;;;;;4983340;28;20424;-75
2023/06/12 02:41:45;;;;;;;12.68;5.22;;;17.50;99.90;;;;;;4960088;28;20462;-75
2023/06/12 02:44:10;;;;;;;10.43;5.03;;;17.50;99.90;;;;;;4975042;28;20478;-76
2023/06/12 02:46:53;;;;;;;10.75;5.10;;;17.50;99.90;;;;;;4974324;28;20428;-76
2023/06/12 02:49:19;;;;;;;10.57;5.72;;;17.50;99.90;;;;;;4973363;28;20412;-76
2023/06/12 02:51:45;;;;;;;10.40;5.20;;;17.40;99.90;;;;;;4975446;28;20412;-76
2023/06/12 02:54:11;;;;;;;10.05;4.68;;;17.40;99.90;;;;;;4974878;28;20434;-76
2023/06/12 02:56:37;;;;;;;10.20;5.40;;;17.40;99.90;;;;;;4983285;28;20836;-75
2023/06/12 02:59:03;;;;;;;11.33;5.77;;;17.30;99.90;;;;;;4979193;28;20508;-76
2023/06/12 03:01:29;;;;;;;10.30;5.38;;;17.20;99.90;;;;;;4983334;28;20437;-76
2023/06/12 03:03:56;;;;;;;10.20;4.97;;;17.20;99.90;;;;;;4994535;28;20406;-75
2023/06/12 03:06:26;;;;;;;12.10;5.75;;;17.10;1.00;;;;;;4994943;28;20414;-75
2023/06/12 03:08:52;;;;;;;9.45;5.10;;;17.00;1.00;;;;;;4981185;28;20411;-76
2023/06/12 03:11:19;;;;;;;10.05;4.95;;;16.90;1.00;;;;;;4974810;28;20930;-76
2023/06/12 03:13:45;;;;;;;11.17;5.40;;;16.90;1.00;;;;;;4975917;28;20422;-76
2023/06/12 03:16:10;;;;;;;12.10;5.30;;;16.70;1.00;;;;;;4974206;28;20466;-76
2023/06/12 03:18:36;;;;;;;12.68;5.70;;;16.70;99.90;;;;;;4974382;28;20459;-75
2023/06/12 03:21:01;;;;;;;10.93;5.60;;;16.60;1.00;;;;;;4975212;28;20431;-75
2023/06/12 03:23:27;;;;;;;11.37;5.47;;;16.50;1.00;;;;;;4969940;28;20414;-75
2023/06/12 03:25:53;;;;;;;12.10;5.65;;;16.50;1.00;;;;;;4959692;28;20426;-75
2023/06/12 03:28:18;;;;;;;11.05;5.78;;;16.40;1.00;;;;;;4972303;28;20420;-75
2023/06/12 03:30:44;;;;;;;13.00;6.03;;;16.20;1.00;;;;;;4970653;28;20423;-75
2023/06/12 03:33:10;;;;;;;10.87;5.40;;;16.20;1.00;;;;;;4972632;28;20520;-75
2023/06/12 03:35:36;;;;;;;11.30;5.88;;;16.20;54.40;;;;;;4971219;28;20400;-75
2023/06/12 03:38:01;;;;;;;10.53;5.20;;;16.30;1.00;;;;;;4971070;28;20508;-75
2023/06/12 03:40:27;;;;;;;10.73;5.40;;;16.20;1.00;;;;;;4973186;28;20396;-76
2023/06/12 03:42:52;;;;;;;11.30;5.35;;;16.10;1.00;;;;;;4971493;28;20419;-75
2023/06/12 03:45:18;;;;;;;9.80;5.30;;;16.20;1.00;;;;;;4971658;28;20469;-75
2023/06/12 03:47:43;;;;;;;11.60;5.10;;;16.10;1.00;;;;;;4969845;28;20845;-75
2023/06/12 03:50:10;;;;;;;10.47;5.33;;;16.20;1.00;;;;;;4970713;28;20409;-75
2023/06/12 03:52:36;;;;;;;13.23;5.60;;;16.30;1.00;;;;;;4971186;28;20779;-75
2023/06/12 03:55:02;;;;;;;11.07;5.70;;;16.30;1.00;;;;;;4954819;28;20417;-75
2023/06/12 03:57:27;;;;;;;10.88;5.15;;;16.30;1.00;;;;;;4970517;28;20413;-76
2023/06/12 03:59:53;;;;;;;11.63;5.70;;;16.30;99.90;;;;;;4971663;28;20418;-75
2023/06/12 04:02:18;;;;;;;10.67;5.47;;;16.30;99.90;;;;;;4967599;28;20748;-76
2023/06/12 04:04:44;;;;;;;9.97;5.23;;;16.30;99.90;;;;;;4971503;28;20412;-76
2023/06/12 04:07:13;;;;;;;10.07;5.22;;;16.40;53.10;;;;;;4971621;28;20431;-75
2023/06/12 04:09:38;;;;;;;11.23;5.88;;;16.50;1.00;;;;;;4968646;28;20467;-75
2023/06/12 04:12:04;;;;;;;11.87;5.67;;;16.60;99.90;;;;;;4971516;28;20451;-75
2023/06/12 04:14:29;;;;;;;10.52;5.40;;;16.70;99.90;;;;;;4971820;28;20428;-75
2023/06/12 04:16:55;;;;;;;11.90;5.10;;;16.80;99.90;;;;;;4972369;28;20396;-75
2023/06/12 04:19:21;;;;;;;13.50;5.83;;;16.90;99.90;;;;;;4966261;28;20472;-76
2023/06/12 04:21:46;;;;;;;10.43;5.20;;;17.00;99.90;;;;;;4971068;28;20895;-76
2023/06/12 04:24:15;;;;;;;18.63;8.20;;;17.10;99.90;;;;;;4970442;28;20527;-75
2023/06/12 04:26:44;;;;;;;15.75;6.18;;;17.30;99.90;;;;;;4971671;28;20406;-75
2023/06/12 04:29:12;;;;;;;15.30;6.35;;;17.40;28.10;;;;;;4969502;28;20427;-77
2023/06/12 04:31:38;;;;;;;13.80;6.28;;;17.40;47.80;;;;;;4972071;28;20443;-78
2023/06/12 04:34:03;;;;;;;14.90;6.82;;;17.60;11.90;;;;;;4964967;28;20428;-78
2023/06/12 04:36:33;;;;;;;15.68;7.28;;;17.80;1.00;;;;;;4969786;28;20442;-78
2023/06/12 04:39:01;;;;;;;14.75;6.35;;;18.00;1.00;;;;;;4945371;28;20447;-78
2023/06/12 04:41:27;;;;;;;16.63;6.80;;;18.20;1.00;;;;;;4970679;28;20532;-78
2023/06/12 04:43:58;;;;;;;12.45;6.10;;;18.40;1.00;;;;;;4965784;28;20408;-75
2023/06/12 04:46:25;;;;;;;11.80;6.10;;;18.80;1.00;;;;;;4961274;28;20417;-75
2023/06/12 04:48:51;;;;;;;14.23;6.57;;;18.90;1.00;;;;;;4952436;28;20424;-75
2023/06/12 04:51:17;;;;;;;12.70;6.00;;;19.10;1.00;;;;;;4954398;28;20497;-76
2023/06/12 04:53:43;;;;;;;12.20;5.83;;;19.30;1.00;;;;;;4951895;28;20425;-76
2023/06/12 04:56:10;;;;;;;14.35;6.10;;;19.70;1.00;;;;;;4961877;28;20851;-76
2023/06/12 04:58:41;;;;;;;13.43;5.80;;;20.60;1.00;;;;;;4968333;28;20416;-78
2023/06/12 05:01:07;;;;;;;11.37;5.30;;;21.80;99.90;;;;;;4962777;28;20892;-78
2023/06/12 05:03:33;;;;;;;10.88;5.45;;;22.70;99.90;;;;;;4962244;28;20417;-80
2023/06/12 05:06:00;;;;;;;12.30;6.03;;;23.30;99.90;;;;;;4957252;28;20421;-78
2023/06/12 05:08:25;;;;;;;11.13;5.43;;;23.70;99.90;;;;;;4955877;28;20759;-76
2023/06/12 05:10:51;;;;;;;11.65;5.60;;;24.20;99.90;;;;;;4963495;28;20447;-77
2023/06/12 05:13:17;;;;;;;12.20;5.50;;;24.40;99.90;;;;;;4964339;28;22193;-77
2023/06/12 05:15:43;;;;;;;10.73;5.45;;;24.70;99.90;;;;;;4946158;28;20423;-78
2023/06/12 05:18:08;;;;;;;10.90;5.73;;;24.90;99.90;;;;;;4967780;28;20411;-77
2023/06/12 05:20:34;;;;;;;9.70;5.13;;;25.60;99.90;;;;;;4953786;28;20407;-77
2023/06/12 05:22:59;;;;;;;11.63;6.57;;;25.70;99.90;;;;;;4966415;28;20426;-77
2023/06/12 05:25:25;;;;;;;11.03;5.97;;;25.70;99.90;;;;;;4951211;29;20856;-77
2023/06/12 05:27:51;;;;;;;12.10;5.73;;;26.00;99.90;;;;;;4951236;29;21078;-77
2023/06/12 05:30:16;;;;;;;10.77;5.80;;;26.10;99.90;;;;;;4954886;29;20472;-76
2023/06/12 05:32:42;;;;;;;11.60;6.00;;;26.40;99.90;;;;;;4962461;28;20420;-76
2023/06/12 05:35:08;;;;;;;11.00;6.30;;;26.80;99.90;;;;;;4956735;29;20401;-77
2023/06/12 05:37:33;;;;;;;11.77;5.88;;;27.30;99.90;;;;;;4956770;29;20397;-77
2023/06/12 05:39:59;;;;;;;10.48;5.70;;;28.20;99.90;;;;;;4956222;29;20410;-77
2023/06/12 05:42:25;;;;;;;12.15;7.10;;;28.60;99.90;;;;;;4952161;29;20422;-77
2023/06/12 05:44:50;;;;;;;12.40;6.07;;;29.00;99.90;;;;;;4951012;29;20398;-77
2023/06/12 05:47:15;;;;;;;9.60;5.67;;;29.60;99.90;;;;;;4951206;29;20397;-77
2023/06/12 05:49:41;;;;;;;10.30;5.95;;;29.90;99.90;;;;;;4950672;29;20799;-77
2023/06/12 05:52:07;;;;;;;13.47;5.93;;;30.50;99.90;;;;;;4950284;28;20410;-77
2023/06/12 05:54:35;;;;;;;8.87;5.10;;;30.10;99.90;;;;;;4950676;29;20435;-77
2023/06/12 05:57:02;;;;;;;12.48;5.95;;;29.90;99.90;;;;;;4949534;29;20890;-77
2023/06/12 05:59:28;;;;;;;9.73;5.22;;;29.70;99.90;;;;;;4951325;29;20390;-78
2023/06/12 06:01:55;;;;;;;12.85;5.57;;;29.80;99.90;;;;;;4951369;29;20481;-77
2023/06/12 06:04:20;;;;;;;9.45;5.40;;;30.00;99.90;;;;;;4955559;28;20499;-77
2023/06/12 06:06:47;;;;;;;9.70;5.38;;;29.40;99.90;;;;;;4959658;28;20505;-77
2023/06/12 06:09:13;;;;;;;9.90;5.78;;;29.40;99.90;;;;;;4965598;28;20413;-77
2023/06/12 06:11:39;;;;;;;10.40;5.50;;;30.30;99.90;;;;;;4950741;29;20434;-77
2023/06/12 06:14:04;;;;;;;10.20;5.78;;;30.40;99.90;;;;;;4961486;28;20464;-77
2023/06/12 06:16:30;;;;;;;9.23;5.13;;;31.20;99.90;;;;;;4970013;28;20396;-77
2023/06/12 06:18:55;;;;;;;9.98;5.57;;;31.20;99.90;;;;;;4970519;28;20396;-77
2023/06/12 06:21:21;;;;;;;10.83;6.27;;;31.60;99.90;;;;;;4969980;28;20412;-77
2023/06/12 06:23:46;;;;;;;13.27;6.77;;;32.00;99.90;;;;;;4951604;28;20763;-77
2023/06/12 06:26:12;;;;;;;10.48;5.05;;;32.10;99.90;;;;;;4950528;29;20774;-77
2023/06/12 06:28:38;;;;;;;10.07;5.50;;;32.50;99.90;;;;;;4950673;29;20489;-77
2023/06/12 06:31:09;;;;;;;10.00;5.50;;;33.10;99.90;;;;;;4950556;29;20397;-77
2023/06/12 06:33:34;;;;;;;10.80;5.88;;;33.50;99.90;;;;;;4950616;29;20429;-77
2023/06/12 06:36:01;;;;;;;10.90;5.50;;;33.10;99.90;;;;;;4950707;29;20403;-77
2023/06/12 06:38:26;;;;;;;11.00;6.43;;;32.70;99.90;;;;;;4950797;29;20417;-77
2023/06/12 06:40:52;;;;;;;11.13;5.33;;;32.50;99.90;;;;;;4968518;28;20896;-77
2023/06/12 06:43:18;;;;;;;9.35;5.50;;;32.90;99.90;;;;;;4969833;28;20575;-77
2023/06/12 06:45:43;;;;;;;9.55;5.78;;;32.80;99.90;;;;;;4969657;28;20399;-77
2023/06/12 06:48:11;;;;;;;10.75;5.72;;;32.70;99.90;;;;;;4969466;28;20413;-77
2023/06/12 06:50:36;;;;;;;10.13;6.13;;;32.20;99.90;;;;;;4969464;28;20396;-77
2023/06/12 06:53:02;;;;;;;11.20;5.67;;;32.60;99.90;;;;;;4968748;28;20424;-77
2023/06/12 06:55:28;;;;;;;11.05;5.72;;;32.80;99.90;;;;;;4969809;28;20411;-77
2023/06/12 06:57:54;;;;;;;10.18;5.43;;;33.00;99.90;;;;;;4971407;28;20400;-77
2023/06/12 07:00:21;;;;;;;10.00;5.50;;;33.00;99.90;;;;;;4969495;28;20883;-77
2023/06/12 07:02:50;;;;;;;9.80;5.40;;;33.30;99.90;;;;;;4969752;28;20466;-77
2023/06/12 07:05:16;;;;;;;9.82;5.90;;;33.60;99.90;;;;;;4972583;28;20540;-77
2023/06/12 07:07:43;;;;;;;10.33;5.83;;;33.80;99.90;;;;;;4972510;28;20437;-77
2023/06/12 07:10:09;;;;;;;10.70;6.07;;;33.80;99.90;;;;;;4972850;28;20924;-77
2023/06/12 07:12:35;;;;;;;10.48;5.22;;;33.50;99.90;;;;;;4973050;28;20385;-77
2023/06/12 07:15:01;;;;;;;11.32;6.20;;;33.70;99.90;;;;;;4955028;28;20469;-77
2023/06/12 07:17:26;;;;;;;11.50;5.70;;;34.00;99.90;;;;;;4954219;29;20480;-77
2023/06/12 07:19:52;;;;;;;11.67;6.20;;;34.20;99.90;;;;;;4953523;29;20493;-77
2023/06/12 07:22:17;;;;;;;13.02;5.55;;;34.00;99.90;;;;;;4952977;29;20441;-77
2023/06/12 07:24:43;;;;;;;10.20;5.90;;;33.80;99.90;;;;;;4953310;29;20923;-77
2023/06/12 07:27:08;;;;;;;10.30;6.00;;;33.80;99.90;;;;;;4953613;29;20481;-77
2023/06/12 07:29:35;;;;;;;12.65;6.07;;;33.60;99.90;;;;;;4953268;29;20406;-77
2023/06/12 07:32:00;;;;;;;9.82;5.95;;;33.70;99.90;;;;;;4953449;29;20398;-77
2023/06/12 07:34:26;;;;;;;11.60;5.60;;;33.30;99.90;;;;;;4953931;29;20425;-77
2023/06/12 07:36:52;;;;;;;11.00;5.70;;;33.30;99.90;;;;;;4952921;29;20405;-77
2023/06/12 07:39:18;;;;;;;11.07;6.00;;;33.10;99.90;;;;;;4953319;29;20440;-77
2023/06/12 07:41:44;;;;;;;13.18;6.10;;;33.60;99.90;;;;;;4953330;29;20530;-78
2023/06/12 07:44:12;;;;;;;11.07;6.10;;;33.30;99.90;;;;;;4953041;29;20485;-77
2023/06/12 07:46:41;;;;;;;11.38;5.00;;;33.60;99.90;;;;;;4952598;29;20887;-77
2023/06/12 07:49:06;;;;;;;10.52;5.63;;;34.40;99.90;;;;;;4953189;29;20743;-77
2023/06/12 07:51:32;;;;;;;9.63;5.93;;;35.00;99.90;;;;;;4952585;29;20418;-77
2023/06/12 07:53:58;;;;;;;11.03;5.77;;;35.50;99.90;;;;;;4953160;29;20426;-77
2023/06/12 07:56:24;;;;;;;9.75;5.57;;;35.30;99.90;;;;;;4953662;29;20409;-77
2023/06/12 07:58:51;;;;;;;11.10;6.05;;;35.50;99.90;;;;;;4952966;29;20929;-77
2023/06/12 08:01:17;;;;;;;10.65;6.57;;;36.10;99.90;;;;;;4952887;29;20390;-77
2023/06/12 08:03:43;;;;;;;13.05;6.47;;;36.50;99.90;;;;;;4953657;29;20505;-78
2023/06/12 08:06:13;;;;;;;9.35;5.70;;;36.50;99.90;;;;;;4952576;29;20954;-78
2023/06/12 08:08:41;;;;;;;10.07;6.40;;;36.30;99.90;;;;;;4952408;29;20510;-78
2023/06/12 08:11:07;;;;;;;8.93;5.00;;;35.90;99.90;;;;;;4952643;29;20417;-77
2023/06/12 08:13:33;;;;;;;10.30;5.30;;;35.00;99.90;;;;;;4959032;28;20428;-77
2023/06/12 08:15:58;;;;;;;9.93;4.93;;;34.70;99.90;;;;;;4971223;28;20889;-77
2023/06/12 08:18:24;;;;;;;10.85;5.80;;;34.90;99.90;;;;;;4972552;28;20717;-77
2023/06/12 08:20:50;;;;;;;9.33;5.10;;;35.20;99.90;;;;;;4971276;28;20459;-77
2023/06/12 08:23:16;;;;;;;10.15;5.15;;;35.40;99.90;;;;;;4971581;28;20388;-77
2023/06/12 08:25:43;;;;;;;9.57;5.40;;;35.30;99.90;;;;;;4972063;28;20529;-77
2023/06/12 08:28:08;;;;;;;11.95;5.45;;;34.70;99.90;;;;;;4971668;28;20467;-77
2023/06/12 08:30:34;;;;;;;10.30;5.77;;;34.90;99.90;;;;;;4971603;28;20479;-77
2023/06/12 08:33:00;;;;;;;9.50;5.57;;;35.20;99.90;;;;;;4971388;28;20428;-77
2023/06/12 08:35:25;;;;;;;10.75;5.60;;;35.50;99.90;;;;;;4971742;28;20904;-77
2023/06/12 08:37:51;;;;;;;10.33;5.90;;;36.20;99.90;;;;;;4971019;28;20408;-78
2023/06/12 08:40:16;;;;;;;10.13;5.82;;;36.50;99.90;;;;;;4971376;28;20400;-78
2023/06/12 08:42:48;;;;;;;9.33;5.80;;;36.00;99.90;;;;;;4971294;28;20389;-77
2023/06/12 08:45:15;;;;;;;10.48;5.82;;;35.00;99.90;;;;;;4971098;28;20411;-77
2023/06/12 08:47:46;;;;;;;10.60;6.47;;;35.60;99.90;;;;;;4971398;28;20801;-78
2023/06/12 08:50:12;;;;;;;9.90;5.70;;;36.10;99.90;;;;;;4970929;28;20463;-77
2023/06/12 08:52:38;;;;;;;9.70;5.40;;;35.50;99.90;;;;;;4970870;28;20917;-77
2023/06/12 08:55:07;;;;;;;11.27;5.90;;;33.90;99.90;;;;;;4970913;28;20463;-77
2023/06/12 08:57:35;;;;;;;10.95;5.60;;;33.00;99.90;;;;;;4971138;28;20892;-77
2023/06/12 09:00:01;;;;;;;8.80;4.57;;;33.10;99.90;;;;;;4971030;28;20404;-77
2023/06/12 09:02:28;;;;;;;10.40;4.93;;;32.90;99.90;;;;;;4971661;28;20392;-77
2023/06/12 09:05:16;;;;;;;9.55;5.28;;;31.80;99.90;;;;;;4970627;28;20975;-77
2023/06/12 09:07:45;;;;;;;9.60;5.30;;;31.30;99.90;;;;;;4970963;28;20434;-77
2023/06/12 09:10:11;;;;;;;9.13;5.40;;;31.30;99.90;;;;;;4953343;28;20427;-77
2023/06/12 09:12:36;;;;;;;10.00;5.40;;;32.40;99.90;;;;;;4970664;28;20530;-77
2023/06/12 09:15:02;;;;;;;10.63;5.40;;;33.80;99.90;;;;;;4952402;28;20484;-77
2023/06/12 09:17:28;;;;;;;9.88;4.97;;;35.10;99.90;;;;;;4951108;29;20739;-78
2023/06/12 09:19:54;;;;;;;10.73;5.53;;;35.90;99.90;;;;;;4952105;29;20402;-77
2023/06/12 09:22:23;;;;;;;10.00;6.50;;;36.50;99.90;;;;;;4951535;29;21019;-77
2023/06/12 09:24:48;;;;;;;10.10;6.00;;;35.00;99.90;;;;;;4951537;29;20405;-77
2023/06/12 09:27:14;;;;;;;9.70;5.45;;;34.90;99.90;;;;;;4950409;28;20934;-78
2023/06/12 09:29:41;;;;;;;10.30;5.50;;;34.10;99.90;;;;;;4951137;29;20509;-77
2023/06/12 09:32:10;;;;;;;9.90;5.78;;;32.90;99.90;;;;;;4950794;29;20398;-77
2023/06/12 09:34:36;;;;;;;13.82;5.32;;;32.60;99.90;;;;;;4950889;29;20436;-77
2023/06/12 09:37:08;;;;;;;9.38;5.93;;;32.60;99.90;;;;;;4951351;29;20413;-77
2023/06/12 09:39:34;;;;;;;10.50;5.82;;;32.10;99.90;;;;;;4951639;29;20393;-77
2023/06/12 09:42:02;;;;;;;9.27;5.68;;;31.70;99.90;;;;;;4951377;29;20469;-77
2023/06/12 09:44:29;;;;;;;10.25;5.60;;;31.40;99.90;;;;;;4951328;29;20430;-77
2023/06/12 09:47:05;;;;;;;11.52;6.20;;;31.20;99.90;;;;;;4954217;29;20402;-77
2023/06/12 09:49:31;;;;;;;9.88;5.70;;;31.80;99.90;;;;;;4955092;29;20891;-77
2023/06/12 09:52:04;;;;;;;9.30;5.30;;;33.60;99.90;;;;;;4952186;29;20429;-77
2023/06/12 09:54:31;;;;;;;10.70;5.70;;;34.50;99.90;;;;;;4951035;29;20479;-78
2023/06/12 09:56:58;;;;;;;10.38;5.80;;;35.70;99.90;;;;;;4951904;29;20404;-78
2023/06/12 09:59:27;;;;;;;10.68;6.20;;;36.20;99.90;;;;;;4951315;29;20409;-77
2023/06/12 10:02:03;;;;;;;9.83;5.50;;;35.70;99.90;;;;;;4950712;29;20907;-77
2023/06/12 10:04:52;;;;;;;11.07;5.75;;;34.80;99.90;;;;;;4950586;29;20388;-77
2023/06/12 10:07:28;;;;;;;9.43;5.50;;;34.00;99.90;;;;;;4951023;29;20802;-77
2023/06/12 10:09:54;;;;;;;10.00;4.70;;;33.80;99.90;;;;;;4951016;29;20499;-77
2023/06/12 10:12:21;;;;;;;12.68;5.10;;;34.10;99.90;;;;;;4950378;29;20493;-77
2023/06/12 10:14:50;;;;;;;8.15;4.55;;;34.90;99.90;;;;;;4966379;28;20432;-77
2023/06/12 10:17:17;;;;;;;9.98;5.60;;;35.30;99.90;;;;;;4969545;28;20427;-77
2023/06/12 10:19:47;;;;;;;9.30;5.35;;;34.50;99.90;;;;;;4969774;28;20399;-77
2023/06/12 10:22:13;;;;;;;9.87;5.70;;;33.80;99.90;;;;;;4969647;28;20888;-77
2023/06/12 10:24:39;;;;;;;9.80;5.57;;;33.50;99.90;;;;;;4970045;28;20761;-77
2023/06/12 10:27:06;;;;;;;9.38;5.70;;;33.80;99.90;;;;;;4984703;28;20423;-77
2023/06/12 10:29:34;;;;;;;10.60;5.22;;;33.50;99.90;;;;;;4983646;28;20408;-77
2023/06/12 10:32:08;;;;;;;9.07;5.15;;;32.50;99.90;;;;;;4982716;28;20485;-77
2023/06/12 10:34:45;;;;;;;11.00;5.10;;;32.50;99.90;;;;;;4987240;28;20435;-78
2023/06/12 10:37:42;;;;;;;10.05;5.30;;;31.90;99.90;;;;;;4983737;28;20775;-77
2023/06/12 10:40:11;;;;;;;9.47;5.00;;;31.30;99.90;;;;;;4984603;28;20447;-76
2023/06/12 10:42:53;;;;;;;11.75;6.30;;;31.40;99.90;;;;;;4986782;28;20407;-76
2023/06/12 10:45:30;;;;;;;9.70;5.50;;;31.30;99.90;;;;;;4977934;28;20429;-76
2023/06/12 10:48:02;;;;;;;9.20;5.10;;;30.80;99.90;;;;;;4981176;28;20456;-76
2023/06/12 10:50:28;;;;;;;8.57;4.60;;;30.40;99.90;;;;;;4987259;28;20419;-77
2023/06/12 10:52:55;;;;;;;11.85;5.72;;;29.80;99.90;;;;;;4982435;28;20522;-76
2023/06/12 10:55:31;;;;;;;10.25;5.50;;;30.00;99.90;;;;;;4978583;28;20430;-77
2023/06/12 10:57:59;;;;;;;9.40;4.90;;;30.30;99.90;;;;;;4979657;28;20384;-77
2023/06/12 11:00:36;;;;;;;9.43;4.60;;;30.70;99.90;;;;;;4980485;28;20419;-77
2023/06/12 11:03:07;;;;;;;10.75;5.00;;;30.40;99.90;;;;;;4983197;28;20422;-77
2023/06/12 11:05:34;;;;;;;9.45;4.47;;;30.30;99.90;;;;;;4976157;28;20392;-78
2023/06/12 11:08:10;;;;;;;11.90;5.00;;;29.80;99.90;;;;;;4980118;28;20439;-78
2023/06/12 11:10:36;;;;;;;9.23;4.60;;;29.60;99.90;;;;;;4979804;28;20841;-77
2023/06/12 11:13:07;;;;;;;9.55;4.93;;;29.50;99.90;;;;;;4984289;28;20419;-78
2023/06/12 11:15:42;;;;;;;10.50;4.85;;;29.80;99.90;;;;;;4989801;28;20400;-77
2023/06/12 11:18:08;;;;;;;10.63;5.70;;;30.10;99.90;;;;;;4978977;28;20973;-77
2023/06/12 11:20:34;;;;;;;9.95;5.38;;;30.20;99.90;;;;;;4978795;28;20878;-77
2023/06/12 11:23:01;;;;;;;9.13;5.30;;;30.30;99.90;;;;;;4976090;28;20386;-76
2023/06/12 11:25:30;;;;;;;11.05;5.10;;;30.30;99.90;;;;;;4978355;28;20443;-77
2023/06/12 11:27:56;;;;;;;8.98;4.82;;;30.50;99.90;;;;;;4978264;28;20396;-77
2023/06/12 11:30:24;;;;;;;10.50;4.97;;;30.50;99.90;;;;;;4957066;28;21088;-77
2023/06/12 11:32:49;;;;;;;9.48;4.90;;;30.40;99.90;;;;;;4975117;28;20423;-77
2023/06/12 11:35:15;;;;;;;9.10;4.70;;;30.30;99.90;;;;;;4975666;28;20423;-77
2023/06/12 11:37:40;;;;;;;8.93;5.03;;;30.00;99.90;;;;;;4974621;28;20411;-77
2023/06/12 11:40:11;;;;;;;10.37;4.80;;;29.70;99.90;;;;;;4975723;28;20487;-77
2023/06/12 11:42:38;;;;;;;9.57;5.23;;;29.70;99.90;;;;;;4977833;28;20771;-77
2023/06/12 11:45:07;;;;;;;10.57;4.90;;;29.20;99.90;;;;;;4977969;28;20806;-77
2023/06/12 11:47:35;;;;;;;9.13;4.30;;;29.50;99.90;;;;;;4976695;28;20415;-77
2023/06/12 11:50:06;;;;;;;10.90;4.72;;;29.90;99.90;;;;;;4975580;28;20747;-77
2023/06/12 11:52:33;;;;;;;9.45;4.68;;;29.90;99.90;;;;;;4976662;28;20455;-77
2023/06/12 11:55:06;;;;;;;10.77;5.43;;;29.80;99.90;;;;;;4973610;28;20507;-76
2023/06/12 11:57:32;;;;;;;9.88;4.95;;;29.20;99.90;;;;;;4964396;28;20416;-76
2023/06/12 11:59:59;;;;;;;9.60;4.80;;;29.00;99.90;;;;;;4972842;28;20419;-78
2023/06/12 12:02:39;;;;;;;10.65;5.80;;;29.10;99.90;;;;;;4975086;28;20471;-77
2023/06/12 12:05:06;;;;;;;9.85;5.22;;;29.10;99.90;;;;;;4972227;28;20475;-76
2023/06/12 12:07:32;;;;;;;9.27;4.68;;;29.20;99.90;;;;;;4973147;28;20476;-77
2023/06/12 12:10:12;;;;;;;9.82;5.00;;;29.50;99.90;;;;;;4973226;28;20456;-77
2023/06/12 12:12:46;;;;;;;9.35;5.15;;;29.50;99.90;;;;;;4972910;28;20392;-77
2023/06/12 12:15:13;;;;;;;9.95;4.55;;;29.80;99.90;;;;;;4965197;28;20412;-77
2023/06/12 12:17:40;;;;;;;10.00;4.80;;;29.90;99.90;;;;;;4972956;28;20795;-77
2023/06/12 12:20:13;;;;;;;8.97;5.07;;;29.80;99.90;;;;;;4973222;28;20427;-79
2023/06/12 12:22:40;;;;;;;11.38;5.03;;;29.40;99.90;;;;;;4972026;28;20404;-78
2023/06/12 12:25:13;;;;;;;9.50;5.10;;;29.20;99.90;;;;;;4972659;28;20416;-75
2023/06/12 12:27:39;;;;;;;9.50;4.67;;;28.80;99.90;;;;;;4972519;28;20415;-77
2023/06/12 12:30:05;;;;;;;10.50;5.20;;;28.80;99.90;;;;;;4972852;28;20683;-76
2023/06/12 12:32:32;;;;;;;9.52;4.63;;;28.90;99.90;;;;;;4955775;28;20443;-76
2023/06/12 12:34:57;;;;;;;9.10;4.88;;;29.30;99.90;;;;;;4969671;28;20416;-77
2023/06/12 12:37:25;;;;;;;8.55;4.35;;;29.40;99.90;;;;;;4971852;28;20891;-76
2023/06/12 12:39:51;;;;;;;9.13;4.15;;;29.20;99.90;;;;;;4972713;28;20392;-75
2023/06/12 12:42:16;;;;;;;10.70;5.10;;;28.90;99.90;;;;;;4968390;28;20933;-76